Terminal Aerodrome Forecast
Issued by NWS Mt. Holly, NJ

Home | Current Version | Previous Version | Text Only | Print | Product List | Glossary On
Versions: 1 2 3 4 5 6 7 8 9 10 11 12 13 14 15 16 17 18 19 20 21 22 23
472
FTUS41 KPHI 172333
TAFTTN
TAF
KTTN 172333Z 1800/1824 09004KT 3SM -SHRA BR OVC006
     FM180200 VRB03KT 1SM -DZ BR OVC003
     FM181300 34005KT 3SM BR BKN005 OVC015
     FM181600 34009G16KT P6SM BKN035=

USA.gov is the U.S. government's official web portal to all federal, state and local government web resources and services.